Atlanta, MI

3:58 AM EST on December 20, 2014 (GMT -0500)
RAWS ATLANTA MI US | Change Station
CLOSE
Current Station
Personal Weather Station
Location: Atlanta, MI
Elevation: 895 ft
Nearby Weather Stations

Elev 895 ft 45.15 °N, 84.19 °W | Updated 50 minutes ago

Partly Cloudy
Partly Cloudy
0 °F
Feels Like 0 °F
N
1
Wind Variable Wind from ESE
Gusts 3.0 mph

Today
High -- | Low -- °F
--% Chance of Precip.
Yesterday
High -- | Low -- °F
Precip. -- in
8:11 AM 4:57 PM
Waning Crescent, 4% visible
Pressure 30.24 in
Visibility 7.0 miles
Clouds Overcast 1200 ft
Windchill 0 °F
Dew Point -4 °F
Humidity 81%
Rainfall -999.00 in
Snow Depth Not available.
UV 0 out of 12
Pollen .10 out of 12
Air Quality Not available.
Flu Activity Not available.
SPECI KGLR 200826Z AUTO 00000KT 7SM OVC012 M12/M13 A3024 RMK AO2 T11221133

More Conditions Fewer Conditions

Pressure 30.24 in
Visibility 7.0 miles
Clouds Overcast 1200 ft
Windchill 0 °F
Dew Point -4 °F
Humidity 81%
Rainfall -999.00 in
Snow Depth Not available.
UV 0 out of 12
Pollen .10 out of 12
Air Quality Not available.
Flu Activity Not available.
SPECI KGLR 200826Z AUTO 00000KT 7SM OVC012 M12/M13 A3024 RMK AO2 T11221133

More Conditions Fewer Conditions

Nowcast | as of 3:00 am EST on December 20, 2014

At 4 am...mostly clear. Patchy fog. Temperature 1 below. Light winds. At 6 am...mostly clear. Patchy fog. Temperature 1 below. Light winds. At 8 am...mostly clear. Temperature 3 above. Light winds. At 10 am...mostly clear. Temperature 16. Light winds.

×

10-Day Weather Forecast

Almanac

Astronomy

Dec. 20, 2014 Rise Set
Actual Time
Civil Twilight
Nautical Twilight
Astronomical Twilight
Moon
Length of Visible Light
Length of Day
Tomorrow will be .
, % of the Moon is Illuminated

Today's Extremes

State Highs State Lows

Community

WunderPhotos

Upload Photos

1,779,146 photos uploaded!

WunderBlogs® & News

Nearby

Air Quality

  Air Quality AQ Index Pollutant
Not available.

Snow Depth

Station Depth Elevation

Earthquake Activity

City Distance Mag. Time & Date
Minimum magnitude displayed is 2.5.

Coastal Water Temperatures

Place Temperature

Nearby Weather Stations